Blue Oak Ranch Reserve, California Weather observations

Data are for 10 minute period ending at time listed.
 Day   Time   Solar   Ave.   Ave.  Ave.  Vector  Max.   Baro.   Total    
  of    of     Rad.   Air    Rel.  Wind   Wind   Wind  Press.  Precip.   
Year   Day            Temp.  Hum.  Speed  Dir.   Gust                    
2016   (PST)  Kw/m2    F      %     mph   deg.    mph    mb.     in.     
-------------------------------------------------------------------------
  43   18:30   0.00   53.3    84    0.4    60     1.5   954.3    0.00 
  43   18:40   0.00   53.1    86    0.4   313     1.1   954.4    0.00 
  43   18:50   0.00   52.7    86    0.6    44     2.3   954.4    0.00 
  43   19:00   0.00   52.2    87    0.7   300     2.0   954.5    0.00 
  43   19:10   0.00   51.6    87    0.8    58     2.0   954.5    0.00 
  43   19:20   0.00   51.3    88    0.4    34     1.3   954.5    0.00 
  43   19:30   0.00   51.1    88    1.3    47     2.6   954.6    0.00 
  43   19:40   0.00   50.8    88    0.7   342     2.3   954.6    0.00 
  43   19:50   0.00   50.7    89    1.0    30     2.2   954.6    0.00 
  43   20:00   0.00   50.4    90    1.3   307     2.7   954.6    0.00 
  43   20:10   0.00   50.3    90    1.8   295     2.7   954.7    0.00 
  43   20:20   0.00   50.2    90    0.1   333     1.3   954.7    0.00 
  43   20:30   0.00   50.3    88    1.4    52     2.4   954.7    0.00 
  43   20:40   0.00   50.2    89    1.2   306     2.3   954.8    0.00 
  43   20:50   0.00   50.2    89    0.3   339     1.2   954.9    0.00 
  43   21:00   0.00   50.1    88    0.3   118     1.2   954.9    0.00 
  43   21:10   0.00   50.0    88    0.6    92     2.0   954.9    0.00 
  43   21:20   0.00   49.8    88    1.2    89     3.2   954.9    0.00 
  43   21:30   0.00   49.9    88    0.2   317     1.2   955.0    0.00 
  43   21:40   0.00   49.4    88    0.6    86     2.8   955.0    0.00 
  43   21:50   0.00   48.9    90    0.6    76     1.8   955.1    0.00 
  43   22:00   0.00   48.8    90    1.1    91     2.5   955.1    0.00 
  43   22:10   0.00   49.2    91    0.8    78     3.1   955.0    0.00 
  43   22:20   0.00   49.5    89    1.6    75     3.2   955.0    0.00 
  43   22:30   0.00   48.9    90    0.3   260     1.2   954.9    0.00 
  43   22:40   0.00   49.2    91    1.0   114     3.1   955.0    0.00 
  43   22:50   0.00   49.4    91    2.1   124     3.5   955.0    0.00 
  43   23:00   0.00   50.3    91    0.9   100     4.0   955.0    0.00 
  43   23:10   0.00   49.8    91    0.5   223     1.3   955.0    0.00 
  43   23:20   0.00   50.4    90    0.5   347     1.6   955.0    0.00 
  43   23:30   0.00   50.2    89    0.9    51     2.9   955.1    0.00 
  43   23:40   0.00   49.9    88    2.1    67     3.2   955.1    0.00 
  43   23:50   0.00   49.0    88    3.4   296     4.9   955.1    0.00 
  44    0:00   0.00   49.0    91    2.9   319     5.2   955.2    0.00 
  44    0:10   0.00   49.5    86    2.4    20     4.7   955.1    0.00 
  44    0:20   0.00   48.8    88    2.0   296     4.7   955.1    0.00 
  44    0:30   0.00   49.0    88    1.0   307     3.1   955.1    0.00 
  44    0:40   0.00   49.0    86    0.3   332     1.5   955.1    0.00 
  44    0:50   0.00   49.3    85    1.2   328     2.4   955.1    0.00 
  44    1:00   0.00   48.6    85    1.4    39     2.6   955.1    0.00 
  44    1:10   0.00   48.1    86    1.1    39     2.1   955.1    0.00 
  44    1:20   0.00   47.3    89    0.9   297     2.6   955.0    0.00 
  44    1:30   0.00   47.4    89    0.8   292     2.8   955.0    0.00 
  44    1:40   0.00   47.2    90    2.2   298     3.7   955.1    0.00 
  44    1:50   0.00   46.9    91    1.8    66     4.0   955.2    0.00 
  44    2:00   0.00   47.0    90    1.3   317     3.3   955.2    0.00 
  44    2:10   0.00   46.4    91    0.7   310     1.5   955.2    0.00 
  44    2:20   0.00   46.2    92    2.0    68     2.9   955.2    0.00 
  44    2:30   0.00   46.0    91    1.1   278     2.4   955.3    0.00 
  44    2:40   0.00   45.6    92    1.3   295     2.8   955.2    0.00 
  44    2:50   0.00   45.2    93    2.2    63     4.0   955.1    0.00 
  44    3:00   0.00   44.4    92    2.2   291     4.1   955.0    0.00 
  44    3:10   0.00   45.0    95    0.6    63     1.8   954.9    0.00 
  44    3:20   0.00   45.3    94    1.7   294     3.4   954.9    0.00 
  44    3:30   0.00   44.4    93    3.9   300     7.1   955.0    0.00 
  44    3:40   0.00   44.9    94    0.8    62     3.1   955.0    0.00 
  44    3:50   0.00   44.9    93    1.1    85     2.3   955.0    0.00 
  44    4:00   0.00   44.2    93    2.2   279     4.8   954.9    0.00 
  44    4:10   0.00   43.3    94    2.3   335     5.0   955.0    0.00 
  44    4:20   0.00   44.1    94    1.6    52     5.2   955.1    0.00 
  44    4:30   0.00   44.4    93    0.9    85     2.8   955.1    0.00 
  44    4:40   0.00   44.5    92    1.5   285     2.6   955.1    0.00 
  44    4:50   0.00   44.3    92    0.9    88     2.3   955.0    0.00 
  44    5:00   0.00   44.3    92    1.7   306     5.3   954.9    0.00 
  44    5:10   0.00   43.7    92    2.2   303     5.2   955.0    0.00 
  44    5:20   0.00   43.9    92    1.4    10     5.0   955.2    0.00 
  44    5:30   0.00   44.1    90    1.0    80     2.7   955.3    0.00 
  44    5:40   0.00   43.4    90    1.4     3     4.0   955.4    0.00 
  44    5:50   0.00   43.6    88    1.5    36     2.8   955.3    0.00 
  44    6:00   0.00   43.3    89    2.1   312     3.4   955.2    0.00 
  44    6:10   0.00   43.2    91    1.6   300     3.3   955.3    0.00 
  44    6:20   0.00   42.6    91    1.2   268     4.4   955.4    0.00 
  44    6:30   0.00   42.5    90    2.2    29     4.3   955.4    0.00 
  44    6:40   0.00   41.5    90    2.8   298     4.6   955.5    0.00 
  44    6:50   0.00   41.3    91    3.1   300     5.9   955.6    0.00 
  44    7:00   0.01   42.2    90    1.7   317     4.2   955.8    0.00 
  44    7:10   0.01   41.9    89    1.6    50     3.6   955.8    0.00 
  44    7:20   0.01   41.3    90    2.7   312     4.2   955.9    0.00 
  44    7:30   0.02   40.9    90    2.0    51     3.9   956.0    0.00 
  44    7:40   0.04   40.7    91    0.3   296     2.1   956.1    0.00 
  44    7:50   0.12   43.2    85    0.0    62     0.6   956.0    0.00 
  44    8:00   0.12   45.2    84    2.4   284     3.3   956.1    0.00 
  44    8:10   0.19   46.2    81    1.1    71     2.8   956.2    0.00 
  44    8:20   0.22   49.8    77    0.9    83     3.4   956.3    0.00 
  44    8:30   0.25   51.1    72    2.0    88     3.3   956.1    0.00 
  44    8:40   0.28   53.4    70    0.8   108     2.0   955.8    0.00 
  44    8:50   0.32   55.1    69    1.0   288     2.5   955.8    0.00 
  44    9:00   0.35   57.9    64    1.5   278     3.8   955.7    0.00 
  44    9:10   0.38   58.2    63    2.7   265     7.6   955.6    0.00 
  44    9:20   0.41   59.3    62    1.4   215     2.9   955.4    0.00 
  44    9:30   0.43   59.4    61    5.3   285     9.0   955.6    0.00 
  44    9:40   0.46   58.9    70    3.5   223     6.9   955.7    0.00 
  44    9:50   0.48   59.2    67    1.9   200     4.2   955.7    0.00 
  44   10:00   0.51   62.2    57    1.2   262     2.5   955.8    0.00 
  44   10:10   0.53   62.5    60    2.8   190     7.2   955.8    0.00 
  44   10:20   0.56   59.3    73    6.3   246    10.5   956.0    0.00 
  44   10:30   0.58   57.3    77    6.9   263    12.1   956.2    0.00 
  44   10:40   0.60   58.5    71    7.5   284    12.6   956.4    0.00 
  44   10:50   0.61   59.8    70    7.1   264    10.2   956.5    0.00 
  44   11:00   0.56   58.4    76    4.9   241     8.6   956.5    0.00 
  44   11:10   0.48   55.8    84    3.4   215     6.7   956.6    0.00 
  44   11:20   0.44   55.9    83    3.1   234     7.8   956.6    0.00 
  44   11:30   0.42   54.6    87    2.6   228     5.1   956.5    0.00 
  44   11:40   0.43   55.1    87    2.0   247     4.8   956.3    0.00 
  44   11:50   0.58   56.7    83    1.8   226     4.4   956.2    0.00 
  44   12:00   0.69   58.2    80    2.4   179     3.9   956.0    0.00 
  44   12:10   0.69   60.9    74    1.7   141     3.5   955.8    0.00 
  44   12:20   0.69   64.0    66    4.9   237    11.2   955.9    0.00 
  44   12:30   0.70   60.4    75    3.9   254     8.8   956.0    0.00 
  44   12:40   0.70   63.1    67    4.6   256    10.4   955.8    0.00 
  44   12:50   0.70   63.9    65    5.5   245    10.4   955.7    0.00 
  44   13:00   0.69   64.9    61    5.7   269    10.4   955.6    0.00 
  44   13:10   0.66   64.0    65    7.4   245    12.6   955.5    0.00 
  44   13:20   0.67   58.4    79    6.9   229    11.1   955.4    0.00 
  44   13:30   0.66   58.8    78    5.5   221     8.9   955.2    0.00 
  44   13:40   0.65   60.5    73    6.3   229    10.9   955.0    0.00 
  44   13:50   0.64   60.2    71    6.9   261    14.2   954.9    0.00 
  44   14:00   0.62   63.6    60    7.7   275    14.6   954.8    0.00 
  44   14:10   0.60   63.6    62    8.2   275    13.4   954.7    0.00 
  44   14:20   0.59   65.1    57    7.5   272    15.1   954.7    0.00 
  44   14:30   0.57   65.3    54   10.5   278    16.2   954.8    0.00 
  44   14:40   0.54   64.4    56   10.9   287    16.1   954.8    0.00 
  44   14:50   0.52   64.5    60    6.6   260    11.7   954.9    0.00 
  44   15:00   0.49   63.0    70    7.5   238    12.2   954.9    0.00 
  44   15:10   0.46   62.1    72    7.1   232    11.5   955.0    0.00 
  44   15:20   0.44   61.7    71    7.0   223    11.4   955.1    0.00 
  44   15:30   0.41   64.2    58    6.0   259    11.4   955.0    0.00 
  44   15:40   0.38   65.0    57    4.6   254     9.3   954.9    0.00 
  44   15:50   0.35   65.3    56    5.2   256     9.3   955.0    0.00 
  44   16:00   0.32   63.5    64    6.0   228     8.8   955.0    0.00 
  44   16:10   0.28   62.3    65    6.7   237    11.2   955.1    0.00 
  44   16:20   0.25   61.5    65    6.3   232    10.4   955.1    0.00 
  44   16:30   0.22   61.3    66    5.9   230    10.2   955.0    0.00 
  44   16:40   0.20   61.2    65    5.3   232     7.9   955.0    0.00 
  44   16:50   0.16   61.2    65    4.9   255     7.1   955.0    0.00 
  44   17:00   0.13   61.0    65    4.7   257     7.3   955.0    0.00 
  44   17:10   0.10   60.3    67    5.5   255     7.5   955.0    0.00 
  44   17:20   0.07   59.5    69    2.0   253     5.8   954.9    0.00 
  44   17:30   0.04   58.0    72    1.1    74     2.3   954.7    0.00 
  44   17:40   0.01   56.8    74    1.5   317     3.9   954.4    0.00 
  44   17:50   0.01   54.8    78    2.8   293     5.3   954.5    0.00 
  44   18:00   0.01   53.6    80    3.3   288     5.7   955.0    0.00 
  44   18:10   0.00   52.6    81    1.4   311     4.2   955.2    0.00 
  44   18:20   0.00   51.4    82    1.6    31     4.4   955.4    0.00 

Return to Blue Oak Ranch Reserve graphs page.


Western Regional Climate Center,wrcc@dri.edu